Time;durP1;ratioP1;P1;durP2;ratioP2;P2;SDS_P1;SDS_P2;PMS_P1;PMS_P2;Temp;Humidity;BMP_temperature;BMP_pressure;BME280_temperature;BME280_humidity;BME280_pressure;Samples;Min_cycle;Max_cycle;Signal;HPM_P1;HPM_P2
2022/01/26 00:19:46;;;;;;;99.72;48.85;;;;;;;-4.18;91.28;99566.33;1823427;78;22600;-66
2022/01/26 00:22:01;;;;;;;100.82;45.75;;;;;;;-4.19;91.26;99569.25;1783082;80;21607;-67
2022/01/26 00:27:23;;;;;;;102.87;44.53;;;;;;;-4.21;91.65;99560.05;1785463;79;20873;-67
2022/01/26 00:29:39;;;;;;;108.87;46.68;;;;;;;-4.21;91.88;99548.45;1783502;80;21057;-67
2022/01/26 00:40:34;;;;;;;110.45;46.20;;;;;;;-4.23;92.53;99547.33;1785562;80;20878;-67
2022/01/26 00:43:10;;;;;;;121.35;50.08;;;;;;;-4.22;92.76;99547.65;1784718;80;21434;-66
2022/01/26 00:45:36;;;;;;;117.67;47.90;;;;;;;-4.22;92.84;99540.09;1784735;80;20910;-67
2022/01/26 00:48:10;;;;;;;119.47;49.88;;;;;;;-4.20;93.04;99544.22;1785578;80;20968;-68
2022/01/26 00:50:39;;;;;;;121.40;49.75;;;;;;;-4.19;93.14;99536.95;1785460;80;21139;-67
2022/01/26 00:53:06;;;;;;;126.67;53.35;;;;;;;-4.17;93.29;99533.01;1785613;80;20975;-67
2022/01/26 00:55:38;;;;;;;124.15;52.95;;;;;;;-4.14;93.35;99535.77;1785607;80;21442;-67
2022/01/26 00:58:07;;;;;;;111.37;45.23;;;;;;;-4.11;93.38;99533.16;1785568;79;20929;-67
2022/01/26 01:00:35;;;;;;;133.18;53.45;;;;;;;-4.11;93.43;99531.81;1785552;79;20905;-68
2022/01/26 01:03:03;;;;;;;112.70;49.13;;;;;;;-4.11;93.45;99530.47;1785561;79;21330;-67
2022/01/26 01:05:40;;;;;;;123.22;48.83;;;;;;;-4.08;93.50;99524.64;1785408;79;21007;-67
2022/01/26 01:08:15;;;;;;;117.67;48.38;;;;;;;-4.09;93.49;99529.19;1756018;80;20876;-67
2022/01/26 01:10:39;;;;;;;116.22;50.95;;;;;;;-4.10;93.58;99525.38;1778534;80;20948;-67
2022/01/26 01:13:15;;;;;;;115.92;46.68;;;;;;;-4.12;93.76;99520.22;1778683;80;20928;-67
2022/01/26 01:15:40;;;;;;;109.48;48.98;;;;;;;-4.11;93.96;99521.85;1747356;80;20983;-68
2022/01/26 01:18:15;;;;;;;126.38;51.50;;;;;;;-4.09;94.11;99518.94;1781804;80;20872;-67
2022/01/26 01:30:51;;;;;;;124.02;52.27;;;;;;;-4.01;94.39;99507.91;1786953;80;20848;-67
2022/01/26 01:33:25;;;;;;;128.32;52.38;;;;;;;-4.01;94.42;99499.83;1756913;80;20888;-68
2022/01/26 01:35:52;;;;;;;129.95;52.27;;;;;;;-3.99;94.46;99500.40;1786353;80;21535;-67
2022/01/26 01:38:20;;;;;;;128.80;51.70;;;;;;;-3.98;94.44;99498.03;1787151;80;20987;-67
2022/01/26 01:40:50;;;;;;;135.35;53.25;;;;;;;-3.98;94.44;99489.95;1787095;80;21189;-68
2022/01/26 01:43:17;;;;;;;135.85;56.65;;;;;;;-3.98;94.45;99483.73;1787392;79;21043;-67
2022/01/26 01:45:48;;;;;;;128.47;50.95;;;;;;;-3.98;94.43;99481.04;1787211;79;21034;-67
2022/01/26 01:48:19;;;;;;;119.80;50.78;;;;;;;-3.98;94.39;99472.96;1787417;79;21421;-67
2022/01/26 01:50:45;;;;;;;131.97;52.90;;;;;;;-3.99;94.38;99472.12;1786976;79;20849;-68
2022/01/26 01:53:15;;;;;;;122.02;50.08;;;;;;;-4.00;94.34;99469.66;1786941;80;21121;-68
2022/01/26 01:55:47;;;;;;;124.27;52.33;;;;;;;-4.01;94.43;99475.59;1786995;80;20888;-68
2022/01/26 01:58:13;;;;;;;128.80;53.33;;;;;;;-4.01;94.48;99473.42;1787081;80;20892;-67
2022/01/26 02:00:42;;;;;;;122.25;50.85;;;;;;;-4.01;94.63;99470.20;1787210;80;21471;-68
2022/01/26 02:03:10;;;;;;;132.18;54.65;;;;;;;-3.98;94.71;99471.10;1787140;80;21526;-68
2022/01/26 02:05:37;;;;;;;111.97;47.83;;;;;;;-3.97;94.78;99467.86;1787223;80;21934;-68
2022/01/26 02:08:05;;;;;;;112.20;49.50;;;;;;;-3.97;94.82;99464.66;1787274;80;20986;-68
2022/01/26 02:10:36;;;;;;;130.37;54.33;;;;;;;-3.95;94.86;99468.47;1787062;79;20888;-68
2022/01/26 02:13:21;;;;;;;154.35;57.23;;;;;;;-3.96;94.92;99466.29;1787040;80;20889;-68
2022/01/26 02:15:48;;;;;;;165.88;59.25;;;;;;;-3.95;94.99;99465.27;1785272;80;20888;-67
2022/01/26 02:19:07;;;;;;;181.45;61.33;;;;;;;-3.93;95.06;99461.00;1781545;80;21139;-67
2022/01/26 02:53:53;;;;;;;130.30;52.70;;;;;;;-3.86;95.94;99464.44;1767932;81;21004;-67
2022/01/26 03:01:52;;;;;;;127.07;52.30;;;;;;;-3.82;96.13;99462.92;1738827;82;20963;-69
2022/01/26 03:07:04;;;;;;;140.52;55.23;;;;;;;-3.77;96.35;99466.28;1767715;81;20964;-67
2022/01/26 03:09:37;;;;;;;132.45;51.25;;;;;;;-3.75;96.43;99462.84;1767301;81;20988;-67
2022/01/26 03:12:01;;;;;;;136.80;56.10;;;;;;;-3.73;96.55;99467.48;1767019;81;21212;-67
2022/01/26 03:14:43;;;;;;;137.97;55.05;;;;;;;-3.69;96.65;99466.51;1767696;81;21004;-68
2022/01/26 03:17:14;;;;;;;139.77;57.38;;;;;;;-3.65;96.79;99470.38;1765262;81;20936;-68
2022/01/26 03:19:43;;;;;;;132.22;52.65;;;;;;;-3.62;96.81;99467.25;1776315;80;20983;-68
2022/01/26 03:28:07;;;;;;;126.42;49.67;;;;;;;-3.58;97.02;99471.64;1786143;80;20932;-68
2022/01/26 03:33:08;;;;;;;115.85;48.00;;;;;;;-3.44;97.57;99473.13;1787033;79;20896;-66
2022/01/26 03:35:27;;;;;;;103.20;44.55;;;;;;;-3.43;97.68;99473.95;1782906;80;20995;-67
2022/01/26 03:37:54;;;;;;;107.17;44.40;;;;;;;-3.44;97.73;99477.68;1785229;80;22014;-67
2022/01/26 03:40:19;;;;;;;103.90;44.42;;;;;;;-3.42;97.77;99479.62;1786702;80;21496;-68
2022/01/26 03:42:48;;;;;;;99.42;45.40;;;;;;;-3.40;97.86;99476.19;1787075;80;20888;-68
2022/01/26 03:45:17;;;;;;;101.22;42.55;;;;;;;-3.36;98.05;99479.25;1787030;79;20923;-67
2022/01/26 03:47:44;;;;;;;97.25;41.05;;;;;;;-3.34;98.03;99475.78;1756576;80;21006;-67
2022/01/26 03:50:14;;;;;;;102.10;43.70;;;;;;;-3.34;98.02;99478.47;1787127;79;21090;-67
2022/01/26 03:52:40;;;;;;;98.25;42.65;;;;;;;-3.34;98.09;99477.13;1756764;80;20943;-67
2022/01/26 03:55:07;;;;;;;104.97;44.27;;;;;;;-3.35;98.25;99478.19;1756712;80;20880;-67
2022/01/26 03:57:34;;;;;;;108.60;46.42;;;;;;;-3.36;98.42;99475.20;1786835;79;20964;-67
2022/01/26 04:00:00;;;;;;;98.95;42.93;;;;;;;-3.35;98.58;99476.84;1787330;80;20971;-67
2022/01/26 04:02:34;;;;;;;98.22;42.30;;;;;;;-3.35;98.65;99476.33;1787062;80;21141;-67
2022/01/26 04:05:05;;;;;;;94.85;43.30;;;;;;;-3.32;98.77;99483.12;1786948;80;20967;-67
2022/01/26 04:07:36;;;;;;;97.78;43.00;;;;;;;-3.30;98.88;99476.98;1787084;80;20940;-68
2022/01/26 04:12:53;;;;;;;104.45;42.83;;;;;;;-3.28;98.98;99482.14;1787048;80;20932;-68
2022/01/26 04:15:27;;;;;;;102.20;44.80;;;;;;;-3.28;99.10;99484.31;1786895;80;21118;-65
2022/01/26 04:17:50;;;;;;;102.27;43.25;;;;;;;-3.27;99.43;99489.16;1786025;80;20983;-68
2022/01/26 04:20:22;;;;;;;107.55;45.33;;;;;;;-3.31;99.58;99484.23;1786935;80;20991;-68
2022/01/26 04:23:10;;;;;;;109.30;44.25;;;;;;;-3.30;99.68;99481.02;1787062;80;20928;-67
2022/01/26 04:25:26;;;;;;;100.90;41.55;;;;;;;-3.31;99.81;99486.92;1784039;80;20923;-68
2022/01/26 04:28:01;;;;;;;105.27;45.33;;;;;;;-3.33;100.00;99486.88;1786689;80;21260;-68
2022/01/26 04:30:26;;;;;;;97.00;43.17;;;;;;;-3.35;100.00;99475.49;1786341;80;21465;-68
2022/01/26 04:32:59;;;;;;;112.35;46.33;;;;;;;-3.38;100.00;99483.52;1786917;79;20940;-68
2022/01/26 04:35:24;;;;;;;101.62;44.05;;;;;;;-3.40;100.00;99481.58;1787181;80;20893;-68
2022/01/26 04:40:36;;;;;;;97.15;44.42;;;;;;;-3.38;100.00;99477.30;1787066;80;21842;-67
2022/01/26 04:43:03;;;;;;;112.80;46.63;;;;;;;-3.36;100.00;99477.91;1785538;80;21589;-68
2022/01/26 04:45:25;;;;;;;101.67;45.33;;;;;;;-3.36;100.00;99473.31;1786211;80;21497;-68
2022/01/26 04:47:53;;;;;;;105.78;48.83;;;;;;;-3.34;100.00;99482.52;1786939;80;20899;-68
2022/01/26 04:50:20;;;;;;;101.55;45.58;;;;;;;-3.32;100.00;99484.47;1787100;80;20973;-67
2022/01/26 04:52:46;;;;;;;111.75;47.20;;;;;;;-3.30;100.00;99480.50;1787110;80;21816;-68
2022/01/26 04:55:17;;;;;;;99.47;42.45;;;;;;;-3.27;100.00;99482.42;1786830;80;20924;-68
2022/01/26 04:57:44;;;;;;;110.85;48.28;;;;;;;-3.24;100.00;99492.22;1786903;80;20920;-68
2022/01/26 05:00:12;;;;;;;95.22;41.40;;;;;;;-3.22;100.00;99479.34;1786952;80;21028;-67
2022/01/26 05:02:38;;;;;;;96.90;43.65;;;;;;;-3.18;100.00;99483.24;1787000;79;21081;-67
2022/01/26 05:05:10;;;;;;;95.30;43.17;;;;;;;-3.17;100.00;99492.13;1787165;80;21178;-67
2022/01/26 05:07:38;;;;;;;100.87;44.60;;;;;;;-3.17;100.00;99489.44;1786744;80;20911;-68
2022/01/26 05:10:08;;;;;;;102.15;43.63;;;;;;;-3.15;100.00;99496.77;1787280;79;21524;-68
2022/01/26 05:12:36;;;;;;;109.87;47.45;;;;;;;-3.14;100.00;99497.61;1786939;80;20896;-68
2022/01/26 05:15:03;;;;;;;106.25;45.98;;;;;;;-3.15;100.00;99501.33;1787521;80;20923;-67
2022/01/26 05:17:36;;;;;;;99.65;44.77;;;;;;;-3.16;100.00;99506.44;1787201;79;20920;-68
2022/01/26 05:20:08;;;;;;;106.92;47.23;;;;;;;-3.18;100.00;99506.67;1775065;80;20945;-68
2022/01/26 05:22:38;;;;;;;103.90;43.90;;;;;;;-3.17;100.00;99501.56;1768198;81;20873;-67
2022/01/26 05:25:21;;;;;;;108.50;45.98;;;;;;;-3.19;100.00;99503.14;1767884;81;21209;-68
2022/01/26 05:28:00;;;;;;;103.87;45.03;;;;;;;-3.21;100.00;99503.89;1764498;81;20912;-69
2022/01/26 05:30:27;;;;;;;103.53;43.40;;;;;;;-3.21;100.00;99504.44;1743973;81;21014;-68
2022/01/26 05:32:56;;;;;;;106.32;45.67;;;;;;;-3.19;100.00;99513.93;1767860;81;20929;-67
2022/01/26 05:35:22;;;;;;;104.30;46.15;;;;;;;-3.21;100.00;99514.67;1744200;81;21402;-66
2022/01/26 05:37:50;;;;;;;100.65;41.88;;;;;;;-3.21;100.00;99513.87;1767916;81;20995;-67
2022/01/26 05:40:18;;;;;;;102.15;41.42;;;;;;;-3.20;100.00;99524.43;1767956;81;21529;-68
2022/01/26 05:42:45;;;;;;;94.62;41.33;;;;;;;-3.19;100.00;99523.36;1768105;81;21133;-67
2022/01/26 05:45:25;;;;;;;106.07;43.55;;;;;;;-3.19;100.00;99523.36;1767813;81;20916;-67
2022/01/26 05:47:49;;;;;;;102.07;41.95;;;;;;;-3.20;100.00;99527.13;1767586;81;21481;-68
2022/01/26 05:50:19;;;;;;;96.92;41.65;;;;;;;-3.19;100.00;99530.11;1767949;81;21044;-68
2022/01/26 05:52:48;;;;;;;95.85;42.25;;;;;;;-3.19;100.00;99522.56;1767968;81;20956;-68
2022/01/26 05:55:14;;;;;;;93.47;40.17;;;;;;;-3.21;100.00;99522.77;1767705;81;21282;-67
2022/01/26 05:57:44;;;;;;;95.42;41.40;;;;;;;-3.19;100.00;99524.71;1767851;81;21545;-68
2022/01/26 06:00:12;;;;;;;88.42;39.33;;;;;;;-3.16;100.00;99522.10;1767647;81;20932;-68
2022/01/26 06:02:41;;;;;;;90.45;38.60;;;;;;;-3.15;100.00;99530.99;1744666;81;20960;-68
2022/01/26 06:05:10;;;;;;;95.32;40.88;;;;;;;-3.17;100.00;99529.88;1744321;81;21007;-68
2022/01/26 06:07:39;;;;;;;98.07;44.35;;;;;;;-3.18;100.00;99543.06;1767904;81;21078;-68
2022/01/26 06:10:07;;;;;;;91.80;37.98;;;;;;;-3.23;100.00;99536.19;1768005;81;21441;-67
2022/01/26 06:12:36;;;;;;;89.50;40.52;;;;;;;-3.23;100.00;99549.15;1768065;81;20928;-67
2022/01/26 06:15:05;;;;;;;96.08;40.70;;;;;;;-3.27;100.00;99543.91;1767820;81;20968;-68
2022/01/26 06:17:37;;;;;;;102.32;41.15;;;;;;;-3.29;100.00;99536.56;1767815;81;20877;-69
2022/01/26 06:20:06;;;;;;;97.37;41.53;;;;;;;-3.31;100.00;99539.48;1777619;80;21156;-68
2022/01/26 06:22:35;;;;;;;81.42;35.23;;;;;;;-3.31;100.00;99538.69;1786943;80;20973;-68
2022/01/26 06:25:06;;;;;;;80.35;35.23;;;;;;;-3.28;100.00;99543.62;1787068;79;20908;-68
2022/01/26 06:27:35;;;;;;;81.02;35.38;;;;;;;-3.28;100.00;99549.01;1787083;80;20900;-68
2022/01/26 06:30:04;;;;;;;86.42;39.55;;;;;;;-3.34;100.00;99545.85;1787018;80;20979;-67
2022/01/26 06:32:30;;;;;;;81.30;35.23;;;;;;;-3.36;100.00;99555.52;1787252;80;21168;-68
2022/01/26 06:34:59;;;;;;;83.90;34.18;;;;;;;-3.39;100.00;99552.45;1786977;80;21583;-68
2022/01/26 06:37:28;;;;;;;86.55;39.40;;;;;;;-3.40;100.00;99558.90;1787345;79;21211;-69
2022/01/26 06:39:54;;;;;;;83.70;36.70;;;;;;;-3.43;100.00;99554.80;1786890;79;20915;-67
2022/01/26 06:42:28;;;;;;;92.70;40.65;;;;;;;-3.43;100.00;99557.49;1787274;80;21465;-68
2022/01/26 06:49:57;;;;;;;96.90;41.70;;;;;;;-3.37;100.00;99562.48;1787126;79;21008;-67
2022/01/26 06:52:24;;;;;;;97.75;43.35;;;;;;;-3.33;100.00;99571.77;1787049;79;21003;-69
2022/01/26 06:54:50;;;;;;;94.72;42.58;;;;;;;-3.31;100.00;99580.47;1756342;80;21476;-67
2022/01/26 06:57:20;;;;;;;85.95;38.50;;;;;;;-3.33;100.00;99582.05;1786982;79;21085;-68
2022/01/26 06:59:46;;;;;;;92.37;40.25;;;;;;;-3.34;100.00;99586.28;1786925;80;20988;-69
2022/01/26 07:02:16;;;;;;;85.25;38.63;;;;;;;-3.36;100.00;99588.41;1787134;80;20884;-67
2022/01/26 07:04:43;;;;;;;95.97;41.83;;;;;;;-3.39;100.00;99588.31;1787166;80;20899;-67
2022/01/26 07:07:12;;;;;;;93.05;40.73;;;;;;;-3.38;100.00;99598.06;1786884;80;21050;-67
2022/01/26 07:09:47;;;;;;;88.07;38.73;;;;;;;-3.34;100.00;99598.41;1786984;79;21354;-67
2022/01/26 07:12:14;;;;;;;86.90;37.93;;;;;;;-3.30;100.00;99598.27;1787124;80;20848;-68
2022/01/26 07:22:57;;;;;;;103.70;46.75;;;;;;;-3.22;100.00;99603.35;1768007;81;21458;-68
2022/01/26 07:25:23;;;;;;;87.10;37.60;;;;;;;-3.21;100.00;99605.53;1767777;81;20885;-67
2022/01/26 07:27:51;;;;;;;88.62;38.33;;;;;;;-3.22;100.00;99618.18;1767822;81;20881;-67
2022/01/26 07:30:19;;;;;;;89.58;40.90;;;;;;;-3.24;100.00;99618.13;1744201;81;21003;-68
2022/01/26 07:32:46;;;;;;;85.40;37.90;;;;;;;-3.22;100.00;99626.78;1768252;81;21473;-68
2022/01/26 07:35:13;;;;;;;94.35;43.42;;;;;;;-3.20;100.00;99622.83;1767186;81;22027;-68
2022/01/26 07:37:45;;;;;;;89.67;38.50;;;;;;;-3.21;100.00;99617.66;1767755;81;20979;-68
2022/01/26 07:40:14;;;;;;;72.32;34.95;;;;;;;-3.22;100.00;99627.62;1743904;81;21000;-67
2022/01/26 07:42:45;;;;;;;79.07;35.58;;;;;;;-3.23;100.00;99613.02;1768144;81;20998;-68
2022/01/26 07:45:19;;;;;;;87.08;36.08;;;;;;;-3.22;100.00;99627.62;1768089;81;21484;-68
2022/01/26 07:47:52;;;;;;;72.95;33.67;;;;;;;-3.23;100.00;99624.63;1768309;81;21261;-68
2022/01/26 07:50:17;;;;;;;65.95;30.10;;;;;;;-3.21;100.00;99626.55;1767805;81;20984;-67
2022/01/26 07:52:45;;;;;;;75.22;33.73;;;;;;;-3.18;100.00;99628.82;1767836;81;20838;-67
2022/01/26 07:55:17;;;;;;;74.80;35.13;;;;;;;-3.16;100.00;99632.64;1767867;81;20892;-67
2022/01/26 07:57:45;;;;;;;69.42;31.62;;;;;;;-3.12;100.00;99640.56;1768124;81;20881;-69
2022/01/26 08:00:16;;;;;;;76.70;34.58;;;;;;;-3.06;100.00;99630.75;1767640;81;21116;-68
2022/01/26 08:02:43;;;;;;;80.07;34.73;;;;;;;-3.01;100.00;99630.06;1767830;81;20956;-68
2022/01/26 08:05:11;;;;;;;68.60;29.50;;;;;;;-2.93;100.00;99636.48;1767920;81;20976;-67
2022/01/26 08:07:42;;;;;;;64.97;28.23;;;;;;;-2.91;100.00;99637.09;1767568;81;20963;-67
2022/01/26 08:10:09;;;;;;;60.98;29.30;;;;;;;-2.89;100.00;99646.30;1767901;81;20920;-69
2022/01/26 08:12:39;;;;;;;60.35;28.32;;;;;;;-2.88;100.00;99643.37;1767692;81;21130;-68
2022/01/26 08:15:08;;;;;;;60.65;26.30;;;;;;;-2.81;100.00;99645.47;1767735;81;20876;-69
2022/01/26 08:17:37;;;;;;;54.25;25.55;;;;;;;-2.77;100.00;99648.53;1767765;81;20937;-68
2022/01/26 08:20:07;;;;;;;58.92;25.85;;;;;;;-2.68;100.00;99647.70;1772574;80;20944;-69
2022/01/26 08:22:34;;;;;;;52.48;23.32;;;;;;;-2.60;100.00;99654.12;1787033;80;20845;-68
2022/01/26 08:25:04;;;;;;;50.08;24.52;;;;;;;-2.54;100.00;99657.75;1756685;80;21300;-68
2022/01/26 08:27:40;;;;;;;49.20;23.32;;;;;;;-2.48;100.00;99662.25;1756356;80;21039;-68
2022/01/26 08:30:09;;;;;;;50.73;23.55;;;;;;;-2.45;99.21;99659.09;1786088;80;20976;-67
2022/01/26 08:32:34;;;;;;;44.45;20.27;;;;;;;-2.43;99.08;99658.03;1787292;80;21436;-68
2022/01/26 08:35:01;;;;;;;41.23;19.95;;;;;;;-2.40;98.29;99658.91;1787019;79;20935;-68
2022/01/26 08:37:28;;;;;;;45.78;22.00;;;;;;;-2.41;98.11;99654.58;1786892;80;21038;-68
2022/01/26 08:39:55;;;;;;;44.70;20.32;;;;;;;-2.35;98.13;99657.17;1787066;80;21452;-68
2022/01/26 08:42:21;;;;;;;39.92;18.62;;;;;;;-2.25;98.35;99659.30;1787026;80;20931;-68
2022/01/26 08:44:47;;;;;;;42.25;19.32;;;;;;;-2.11;98.27;99667.20;1787186;79;20877;-67
2022/01/26 08:47:14;;;;;;;42.17;20.77;;;;;;;-2.03;97.69;99669.55;1756474;80;20923;-68
2022/01/26 08:49:42;;;;;;;35.33;19.67;;;;;;;-1.93;97.69;99665.47;1756551;80;22885;-68
2022/01/26 08:52:08;;;;;;;43.05;19.48;;;;;;;-1.84;97.15;99663.54;1787018;79;20928;-68
2022/01/26 08:54:38;;;;;;;38.10;17.48;;;;;;;-1.78;96.81;99671.25;1787210;80;20888;-68
2022/01/26 08:57:09;;;;;;;42.10;19.48;;;;;;;-1.73;96.12;99673.24;1787122;80;20896;-68
2022/01/26 08:59:40;;;;;;;38.02;19.32;;;;;;;-1.67;95.64;99660.68;1786933;79;20928;-68
2022/01/26 09:02:08;;;;;;;37.70;17.57;;;;;;;-1.65;93.87;99666.13;1787347;80;21804;-68
2022/01/26 09:04:35;;;;;;;37.33;18.50;;;;;;;-1.66;94.13;99660.96;1786872;80;20868;-67
2022/01/26 09:07:04;;;;;;;40.28;18.62;;;;;;;-1.63;93.78;99663.19;1787057;79;20935;-67
2022/01/26 09:09:32;;;;;;;36.70;18.07;;;;;;;-1.61;93.23;99660.56;1787494;79;20971;-69
2022/01/26 09:12:06;;;;;;;36.15;16.35;;;;;;;-1.61;92.89;99663.78;1787125;80;21022;-68
2022/01/26 09:14:31;;;;;;;32.88;16.02;;;;;;;-1.59;92.37;99656.27;1786837;80;21103;-68
2022/01/26 09:17:02;;;;;;;34.80;16.87;;;;;;;-1.59;91.43;99665.18;1787044;80;21385;-68
2022/01/26 09:19:31;;;;;;;36.98;17.82;;;;;;;-1.62;91.70;99670.26;1786918;80;21038;-67
2022/01/26 09:22:03;;;;;;;34.55;15.95;;;;;;;-1.62;91.03;99667.56;1787182;80;20963;-67
2022/01/26 09:24:33;;;;;;;36.40;16.97;;;;;;;-1.60;91.27;99672.17;1787384;80;20999;-67
2022/01/26 09:27:02;;;;;;;40.48;20.27;;;;;;;-1.62;90.09;99675.11;1787195;80;21500;-67
2022/01/26 09:29:30;;;;;;;44.00;20.60;;;;;;;-1.70;89.82;99676.82;1787015;80;20915;-67
2022/01/26 09:32:03;;;;;;;43.23;19.75;;;;;;;-1.75;90.32;99674.83;1787044;80;21085;-68
2022/01/26 09:34:30;;;;;;;39.48;19.50;;;;;;;-1.74;90.05;99671.05;1786950;80;20971;-68
2022/01/26 09:36:57;;;;;;;45.60;23.05;;;;;;;-1.74;90.05;99671.05;1787136;80;21003;-67
2022/01/26 09:39:23;;;;;;;45.38;22.17;;;;;;;-1.76;89.84;99669.14;1787110;80;21195;-69
2022/01/26 09:41:51;;;;;;;47.27;21.97;;;;;;;-1.76;89.87;99674.55;1787246;80;21456;-68
2022/01/26 09:44:18;;;;;;;49.55;23.32;;;;;;;-1.77;89.63;99673.40;1787012;80;20947;-67
2022/01/26 09:46:45;;;;;;;54.75;22.82;;;;;;;-1.81;89.63;99679.83;1787349;80;20975;-69
2022/01/26 09:49:16;;;;;;;42.43;21.40;;;;;;;-1.85;89.68;99686.73;1787016;80;20971;-69
2022/01/26 09:51:47;;;;;;;46.65;22.65;;;;;;;-1.88;89.83;99692.61;1787283;79;21685;-69
2022/01/26 09:54:16;;;;;;;41.35;19.17;;;;;;;-1.92;89.72;99690.91;1787017;80;20944;-67
2022/01/26 09:56:50;;;;;;;50.05;21.07;;;;;;;-2.01;89.68;99685.53;1787049;79;20911;-68
2022/01/26 09:59:17;;;;;;;45.50;19.20;;;;;;;-2.10;91.70;99684.52;1787266;79;20974;-68
2022/01/26 10:01:50;;;;;;;48.68;22.55;;;;;;;-2.13;92.41;99680.13;1787155;79;20996;-69
2022/01/26 10:04:37;;;;;;;40.17;20.77;;;;;;;-2.12;93.30;99683.12;1787125;80;21528;-69
2022/01/26 10:15:38;;;;;;;35.10;16.07;;;;;;;-2.06;93.30;99692.98;1787511;79;20115;-68
2022/01/26 10:18:14;;;;;;;50.85;20.00;;;;;;;-2.06;93.38;99683.53;1786855;80;21124;-68
2022/01/26 10:20:52;;;;;;;39.58;18.32;;;;;;;-2.06;93.13;99684.08;1781648;80;20933;-68
2022/01/26 10:23:22;;;;;;;39.90;19.23;;;;;;;-2.04;93.67;99680.59;1767813;81;21074;-68
2022/01/26 10:26:08;;;;;;;37.33;16.97;;;;;;;-1.99;94.05;99684.78;1767682;81;20932;-67
2022/01/26 10:28:59;;;;;;;34.67;17.57;;;;;;;-1.95;93.04;99687.32;1767921;81;20987;-67
2022/01/26 10:31:33;;;;;;;37.98;16.57;;;;;;;-2.03;92.60;99677.66;1767992;81;21073;-67
2022/01/26 10:34:13;;;;;;;39.73;17.52;;;;;;;-2.04;92.47;99677.89;1767906;81;20960;-68
2022/01/26 10:36:50;;;;;;;33.15;16.27;;;;;;;-2.08;92.27;99671.61;1767782;81;20933;-67
2022/01/26 10:39:24;;;;;;;40.30;17.23;;;;;;;-2.14;91.70;99676.60;1768049;81;21036;-68
2022/01/26 10:41:58;;;;;;;41.77;17.07;;;;;;;-2.19;91.59;99680.52;1767820;81;21040;-68
2022/01/26 10:44:36;;;;;;;35.73;16.52;;;;;;;-2.17;91.35;99678.42;1767992;81;21080;-68
2022/01/26 10:47:05;;;;;;;37.08;17.87;;;;;;;-2.12;90.64;99676.37;1767404;81;20905;-68
2022/01/26 10:54:54;;;;;;;38.85;18.95;;;;;;;-1.88;90.44;99676.41;1767885;81;20889;-68
2022/01/26 10:57:24;;;;;;;41.90;17.55;;;;;;;-1.75;90.30;99674.00;1767712;81;22309;-69
2022/01/26 10:59:51;;;;;;;36.10;18.62;;;;;;;-1.67;89.36;99678.25;1767767;81;21478;-68
2022/01/26 11:02:30;;;;;;;39.27;20.45;;;;;;;-1.64;89.11;99679.13;1767978;81;20960;-68
2022/01/26 11:04:51;;;;;;;55.45;21.75;;;;;;;-1.63;88.15;99682.11;1767058;81;21437;-68
2022/01/26 11:07:18;;;;;;;49.63;21.02;;;;;;;-1.68;87.31;99675.23;1767798;81;21000;-68
2022/01/26 11:09:47;;;;;;;41.42;18.92;;;;;;;-1.66;87.96;99677.17;1767757;81;21149;-68
2022/01/26 11:12:17;;;;;;;32.28;16.05;;;;;;;-1.60;87.31;99678.41;1767759;81;21426;-66
2022/01/26 11:14:49;;;;;;;36.77;16.02;;;;;;;-1.65;85.83;99677.45;1744334;81;20924;-68
2022/01/26 11:17:33;;;;;;;34.23;15.28;;;;;;;-1.69;86.55;99679.00;1767634;81;21422;-67
2022/01/26 11:19:58;;;;;;;36.30;14.58;;;;;;;-1.63;86.31;99688.34;1768079;81;20932;-67
2022/01/26 11:22:29;;;;;;;26.30;12.55;;;;;;;-1.64;84.92;99679.13;1782257;80;21781;-68
2022/01/26 11:24:55;;;;;;;28.75;13.58;;;;;;;-1.68;84.41;99680.64;1784419;80;21460;-68
2022/01/26 11:27:34;;;;;;;26.40;13.13;;;;;;;-1.71;84.66;99684.64;1784188;80;20975;-68
2022/01/26 11:30:05;;;;;;;27.60;12.35;;;;;;;-1.72;84.46;99677.05;1784429;80;20892;-67
2022/01/26 11:32:37;;;;;;;30.77;12.70;;;;;;;-1.75;83.92;99686.98;1784604;79;21455;-69
2022/01/26 11:35:09;;;;;;;28.57;13.50;;;;;;;-1.84;83.33;99684.32;1783844;80;21178;-67
2022/01/26 11:37:49;;;;;;;33.35;12.93;;;;;;;-1.85;83.70;99686.73;1783903;80;20940;-67
2022/01/26 11:46:12;;;;;;;20.52;7.72;;;;;;;-1.85;81.54;99687.58;1770037;80;21082;-66
2022/01/26 11:48:40;;;;;;;27.50;9.85;;;;;;;-1.84;78.65;99694.61;1769913;80;21125;-68
2022/01/26 11:51:10;;;;;;;13.10;6.47;;;;;;;-1.87;77.18;99686.98;1743442;80;21050;-67
2022/01/26 11:53:36;;;;;;;17.35;6.78;;;;;;;-1.90;74.08;99685.27;1766765;79;21059;-67
2022/01/26 11:56:12;;;;;;;13.43;5.15;;;;;;;-1.94;75.03;99675.45;1769182;80;21043;-66
2022/01/26 11:58:43;;;;;;;11.38;4.67;;;;;;;-1.90;74.80;99677.16;1769843;80;21016;-68
2022/01/26 12:03:48;;;;;;;10.60;5.08;;;;;;;-1.87;72.48;99675.34;1766738;80;21047;-67
2022/01/26 12:06:21;;;;;;;10.32;4.67;;;;;;;-1.78;72.85;99673.95;1763128;80;21122;-67
2022/01/26 12:08:50;;;;;;;15.90;6.33;;;;;;;-1.67;72.11;99687.16;1768739;80;21155;-67
2022/01/26 12:11:16;;;;;;;10.32;4.55;;;;;;;-1.68;70.24;99688.74;1770691;80;21055;-66
2022/01/26 12:13:49;;;;;;;12.65;4.45;;;;;;;-1.77;69.65;99689.09;1737479;80;21055;-68
2022/01/26 12:16:18;;;;;;;13.72;5.70;;;;;;;-1.78;69.43;99694.73;1764168;80;21641;-68
2022/01/26 12:19:08;;;;;;;19.60;7.75;;;;;;;-1.79;69.76;99695.80;1767670;80;21024;-68
2022/01/26 12:35:39;;;;;;;17.55;7.00;;;;;;;-1.94;70.16;99701.66;1750661;81;21115;-69
2022/01/26 12:38:25;;;;;;;16.97;6.33;;;;;;;-1.90;69.69;99706.88;1690447;84;20930;-68
2022/01/26 12:43:55;;;;;;;14.18;5.95;;;;;;;-1.99;70.06;99711.78;1605022;88;21044;-68
2022/01/26 12:46:28;;;;;;;16.20;7.45;;;;;;;-2.01;70.38;99707.97;1682099;83;21029;-66
2022/01/26 12:49:08;;;;;;;18.67;8.35;;;;;;;-2.03;70.41;99711.97;1701002;83;21044;-67
2022/01/26 12:51:46;;;;;;;17.42;7.47;;;;;;;-2.03;70.58;99711.97;1701933;83;21020;-68
2022/01/26 12:54:17;;;;;;;18.00;6.90;;;;;;;-2.05;70.32;99711.37;1703941;83;21108;-65
2022/01/26 12:56:45;;;;;;;21.15;9.05;;;;;;;-2.06;70.66;99711.09;1689858;84;21096;-66
2022/01/26 12:59:17;;;;;;;21.73;8.70;;;;;;;-2.06;70.83;99714.59;1692915;84;21053;-67
2022/01/26 13:01:54;;;;;;;16.35;7.60;;;;;;;-2.08;71.13;99709.42;1693852;84;21120;-68
2022/01/26 13:04:21;;;;;;;16.82;7.55;;;;;;;-2.10;70.17;99711.52;1695917;84;21049;-66
2022/01/26 13:06:54;;;;;;;16.17;7.53;;;;;;;-2.09;70.68;99711.01;1698222;83;22115;-67
2022/01/26 13:09:30;;;;;;;15.75;7.45;;;;;;;-2.04;71.27;99719.24;1697025;84;21053;-68
2022/01/26 13:12:03;;;;;;;16.95;7.47;;;;;;;-1.94;71.50;99711.11;1694395;84;21057;-68
2022/01/26 13:14:42;;;;;;;15.40;6.97;;;;;;;-1.88;71.26;99715.06;1701569;83;21495;-67
2022/01/26 13:17:37;;;;;;;14.53;7.00;;;;;;;-1.87;70.23;99728.02;1705317;83;21493;-67
2022/01/26 13:26:17;;;;;;;30.20;11.22;;;;;;;-1.89;71.14;99713.91;1691850;84;21009;-68
2022/01/26 13:32:03;;;;;;;36.30;13.05;;;;;;;-1.88;70.49;99715.06;1693204;84;21001;-67
2022/01/26 13:36:55;;;;;;;17.30;7.55;;;;;;;-1.86;70.51;99721.03;1677677;84;20970;-67
2022/01/26 13:42:51;;;;;;;17.65;8.23;;;;;;;-1.83;70.35;99719.76;1589633;88;21673;-67
2022/01/26 13:55:43;;;;;;;21.65;8.98;;;;;;;-1.92;70.14;99727.89;1753267;81;21004;-68
2022/01/26 14:01:01;;;;;;;18.62;8.40;;;;;;;-2.00;70.46;99729.89;1750962;81;21264;-65
2022/01/26 14:03:29;;;;;;;18.85;7.87;;;;;;;-2.07;70.57;99730.52;1751838;81;21043;-65
2022/01/26 14:05:57;;;;;;;18.62;8.48;;;;;;;-2.05;71.21;99729.77;1751883;81;21131;-68
2022/01/26 14:08:25;;;;;;;16.30;7.85;;;;;;;-2.05;71.23;99732.46;1750773;81;20992;-67
2022/01/26 14:10:51;;;;;;;15.90;7.17;;;;;;;-2.06;71.66;99733.50;1752103;81;21051;-67
2022/01/26 14:13:23;;;;;;;14.70;7.10;;;;;;;-2.05;71.87;99727.06;1749550;81;21250;-65
2022/01/26 14:15:52;;;;;;;16.97;7.87;;;;;;;-2.04;71.69;99735.97;1753414;81;21741;-66
2022/01/26 14:20:55;;;;;;;22.70;10.10;;;;;;;-2.05;71.26;99743.27;1752148;81;21496;-67
2022/01/26 14:23:43;;;;;;;15.55;6.95;;;;;;;-2.11;71.10;99741.47;1769795;80;20972;-66
2022/01/26 14:25:55;;;;;;;16.65;7.17;;;;;;;-2.17;71.10;99748.63;1764387;80;21433;-65